Thunder radar more information blitzortung!


Radar de pluja more information rain snow radar


Visita la nostra xarxa de llocs de meteo:

Template documentation
and downloads

And another site



No particular awareness of the weather is required.    There are no Weather-warnings

Pagina Historial Weather Underground text

Diari Resum Juliol 19, 2017 Unitats:  Mètric    Imperial   Tant
« Previous Dia
SegĂźent Dia »
Diari Setmana Mensual Anual Personalitzada
  Maxima: Minima: Media:
Temperatura: -17.8 °C -6.3 °C -2.8 °C
Punt de rosada: -17.8 °C -10.8 °C -8.6 °C
Humitat: Humidity % 34 % 55 %
Wind Speed: 0 km/h 0 km/h 15 km/h
RĂ fegues de vent: 0 km/h - -
Vent:- - East
Pression baro: 0 hPa 34164.7 hPa -
Precipitacions: 0 mm    
Historical Graphs
 
 
Dades de taula per Juliol 19, 2017
Temps Temperatura Punt de rosada Pression baro Vent Wind Speed RĂ fegues de vent Humitat Rainfall Rate (Hourly)
-17.8 °C -17.8 °C 0 hPa Calm     Humidity % 0 mm
00:00 -4.6 °C -8.6 °C 34361.1 hPa SW 2.6 km/h 7.7 km/h 64 % 0 mm
00:05 -4.6 °C -8.5 °C 34361.1 hPa SW 5.1 km/h 10.3 km/h 65 % 0 mm
00:15 -6.1 °C -8.4 °C 34256.2 hPa SW 5.1 km/h 5.1 km/h 77 % 0 mm
00:25 -6.2 °C -8.3 °C 34256.2 hPa SW 2.6 km/h 5.1 km/h 79 % 0 mm
00:35 -6.2 °C -8.3 °C 34256.2 hPa WSW 2.6 km/h 5.1 km/h 79 % 0 mm
00:45 -6.2 °C -8.2 °C 34256.2 hPa WSW 2.6 km/h 5.1 km/h 80 % 0 mm
00:55 -6.2 °C -8.1 °C 34256.2 hPa Calm   2.6 km/h 81 % 0 mm
01:05 -6.1 °C -8.1 °C 34256.2 hPa WSW 5.1 km/h 5.1 km/h 80 % 0 mm
01:15 -6.1 °C -8 °C 34256.2 hPa Calm   5.1 km/h 81 % 0 mm
01:25 -6.2 °C -7.9 °C 34293.4 hPa Calm     82 % 0 mm
01:35 -6.2 °C -7.9 °C 34293.4 hPa Calm   2.6 km/h 82 % 0 mm
01:45 -6.2 °C -8.1 °C 34327.3 hPa Calm   5.1 km/h 81 % 0 mm
01:55 -6.3 °C -8.3 °C 34327.3 hPa WSW 7.7 km/h 7.7 km/h 80 % 0 mm
02:05 -6.3 °C -8.5 °C 34327.3 hPa WSW 2.6 km/h 10.3 km/h 78 % 0 mm
02:15 -6.2 °C -8.4 °C 34327.3 hPa WSW 2.6 km/h 5.1 km/h 78 % 0 mm
02:25 -5.9 °C -8.4 °C 34361.1 hPa West 2.6 km/h 7.7 km/h 76 % 0 mm
02:35 -5.7 °C -8.2 °C 34361.1 hPa Calm   2.6 km/h 75 % 0 mm
02:45 -5.5 °C -8.3 °C 34327.3 hPa Calm   5.1 km/h 73 % 0 mm
02:55 -5.4 °C -8.3 °C 34327.3 hPa NE 5.1 km/h 7.7 km/h 73 % 0 mm
03:05 -5.6 °C -8.5 °C 34327.3 hPa NNE 5.1 km/h 10.3 km/h 72 % 0 mm
03:15 -5.6 °C -8.4 °C 34327.3 hPa North 2.6 km/h 5.1 km/h 73 % 0 mm
03:25 -5.6 °C -8.3 °C 34327.3 hPa West 2.6 km/h 5.1 km/h 74 % 0 mm
03:35 -5.4 °C -8.4 °C 34327.3 hPa WNW 2.6 km/h 2.6 km/h 71 % 0 mm
03:45 -5.1 °C -8.3 °C 34293.4 hPa NNE 2.6 km/h 7.7 km/h 70 % 0 mm
03:55 -4.4 °C -8.1 °C 34327.3 hPa NE 2.6 km/h 10.3 km/h 67 % 0 mm
04:05 -4.2 °C -8.1 °C 34327.3 hPa NE 5.1 km/h 10.3 km/h 65 % 0 mm
04:15 -3.6 °C -7.8 °C 34327.3 hPa NE 5.1 km/h 10.3 km/h 63 % 0 mm
04:25 -3.4 °C -8 °C 34293.4 hPa NE 5.1 km/h 15.6 km/h 60 % 0 mm
04:35 -3.1 °C -7.8 °C 34293.4 hPa NNE 5.1 km/h 10.3 km/h 60 % 0 mm
04:45 -3.1 °C -8.2 °C 34327.3 hPa NNE 7.7 km/h 15.6 km/h 57 % 0 mm
04:55 -2.6 °C -8 °C 34327.3 hPa NNE 5.1 km/h 7.7 km/h 55 % 0 mm
05:05 -2.4 °C -8.4 °C 34327.3 hPa NE 7.7 km/h 10.3 km/h 52 % 0 mm
05:15 -2.2 °C -8.3 °C 34293.4 hPa NE 5.1 km/h 7.7 km/h 51 % 0 mm
05:25 -2 °C -8.7 °C 34293.4 hPa ENE 7.7 km/h 7.7 km/h 48 % 0 mm
05:30 -1.9 °C -8.8 °C 34293.4 hPa East 5.1 km/h 7.7 km/h 47 % 0 mm
10:31 -1.9 °C -8.8 °C 34293.4 hPa NNE 9 km/h 9 km/h 47 % 0 mm
10:37 -1.7 °C -8.6 °C 34293.4 hPa SW 6.3 km/h 6.3 km/h 47 % 0 mm
10:42 -1.7 °C -8.8 °C 34293.4 hPa NNE 9 km/h 9 km/h 46 % 0 mm
10:47 -1.3 °C -8.4 °C 34293.4 hPa SW 9 km/h 9 km/h 46 % 0 mm
10:48 -1.3 °C -8.4 °C 34293.4 hPa West 3.7 km/h 3.7 km/h 46 % 0 mm
10:53 -1.4 °C -8.7 °C 34293.4 hPa North 15 km/h 15 km/h 45 % 0 mm
10:58 -1.3 °C -8.4 °C 34293.4 hPa ENE 15 km/h 15 km/h 46 % 0 mm
11:03 -1.4 °C -8.7 °C 34293.4 hPa NNE 6 km/h 6 km/h 45 % 0 mm
11:08 -1.3 °C -8.8 °C 34293.4 hPa SW 9.3 km/h 9.3 km/h 44 % 0 mm
11:13 -1.1 °C -8.8 °C 34293.4 hPa ENE 9 km/h 9 km/h 43 % 0 mm
11:18 -1 °C -8.9 °C 34293.4 hPa East 11.9 km/h 11.9 km/h 42 % 0 mm
11:23 -0.8 °C -9.2 °C 34256.2 hPa ESE 9 km/h 9 km/h 40 % 0 mm
11:28 -0.8 °C -9.4 °C 34256.2 hPa East 9 km/h 9 km/h 39 % 0 mm
11:33 -1 °C -9.8 °C 34256.2 hPa NE 11.9 km/h 11.9 km/h 38 % 0 mm
11:38 -0.9 °C -9.7 °C 34256.2 hPa South 9 km/h 9 km/h 38 % 0 mm
11:43 -0.9 °C -9.7 °C 34256.2 hPa ESE 14.5 km/h 14.5 km/h 38 % 0 mm
11:49 -1.1 °C -9.9 °C 34256.2 hPa East 11.9 km/h 11.9 km/h 38 % 0 mm
11:54 -1.2 °C -9.9 °C 34256.2 hPa SE 9 km/h 9 km/h 38 % 0 mm
11:59 -1.2 °C -10.2 °C 34256.2 hPa ESE 14 km/h 14 km/h 37 % 0 mm
12:05 -1.3 °C -10.6 °C 34256.2 hPa SE 11.9 km/h 11.9 km/h 36 % 0 mm
12:10 -1.3 °C -10.3 °C 34256.2 hPa ENE 11.9 km/h 11.9 km/h 37 % 0 mm
12:15 -1 °C -10.1 °C 34256.2 hPa ENE 2.6 km/h 7.7 km/h 37 % 0 mm
12:20 -1 °C -10.5 °C 34256.2 hPa SE 9.3 km/h 9.3 km/h 35 % 0 mm
12:25 -1 °C -10.8 °C 34256.2 hPa ENE 11.9 km/h 11.9 km/h 34 % 0 mm
12:30 -0.9 °C -10.4 °C 34256.2 hPa East 12.9 km/h 23.3 km/h 35 % 0 mm
12:35 -0.8 °C -10.6 °C 34256.2 hPa East 12.9 km/h 18.2 km/h 34 % 0 mm
12:40 -0.6 °C -10.2 °C 34256.2 hPa East 12.9 km/h 18.2 km/h 35 % 0 mm
12:45 -0.6 °C -10.2 °C 34256.2 hPa East 15.6 km/h 20.8 km/h 35 % 0 mm
12:50 -0.7 °C -10.2 °C 34256.2 hPa East 18.2 km/h 28.5 km/h 35 % 0 mm
12:55 -0.5 °C -10.1 °C 34222.3 hPa East 18.2 km/h 23.3 km/h 35 % 0 mm
13:00 -0.2 °C -9.6 °C 34222.3 hPa ESE 5.1 km/h 23.3 km/h 36 % 0 mm
13:05 -0.3 °C -9.7 °C 34222.3 hPa SE 20.9 km/h 20.9 km/h 36 % 0 mm
13:10 -0.6 °C -9.9 °C 34256.2 hPa ESE 18.2 km/h 23.3 km/h 36 % 0 mm
13:15 -0.7 °C -9.8 °C 34256.2 hPa ESE 23.3 km/h 33.6 km/h 37 % 0 mm
13:20 -0.8 °C -9.8 °C 34256.2 hPa ESE 25.4 km/h 25.4 km/h 37 % 0 mm
13:25 -0.9 °C -9.7 °C 34256.2 hPa East 20.9 km/h 20.9 km/h 38 % 0 mm
13:30 -0.8 °C -9.6 °C 34256.2 hPa ESE 15.6 km/h 25.9 km/h 38 % 0 mm
13:35 -0.8 °C -9.7 °C 34256.2 hPa ESE 15.6 km/h 25.9 km/h 38 % 0 mm
13:40 -0.8 °C -9.4 °C 34256.2 hPa ESE 15.6 km/h 36.2 km/h 39 % 0 mm
13:45 -0.7 °C -9.4 °C 34256.2 hPa ESE 15.6 km/h 36.2 km/h 39 % 0 mm
13:46 -0.7 °C -9.3 °C 34256.2 hPa ENE 23.8 km/h 23.8 km/h 39 % 0 mm
13:51 -0.7 °C -9.1 °C 34256.2 hPa East 20.9 km/h 20.9 km/h 40 % 0 mm
13:56 -0.4 °C -9.1 °C 34256.2 hPa East 23.8 km/h 23.8 km/h 39 % 0 mm
14:01 -0.4 °C -9.1 °C 34256.2 hPa East 15.6 km/h 15.6 km/h 39 % 0 mm
14:06 -0.3 °C -8.9 °C 34256.2 hPa ENE 14 km/h 14 km/h 39 % 0 mm
14:11 -0.3 °C -9.2 °C 34256.2 hPa South 26.9 km/h 26.9 km/h 38 % 0 mm
14:16 -0.3 °C -9.2 °C 34256.2 hPa ESE 40.4 km/h 40.4 km/h 38 % 0 mm
14:21 -0.2 °C -9.1 °C 34256.2 hPa South 17.9 km/h 17.9 km/h 38 % 0 mm
14:26 -0.2 °C -9.1 °C 34256.2 hPa ESE 18.3 km/h 20.3 km/h 38 % 0 mm
14:31 -0.5 °C -9.2 °C 34256.2 hPa ESE 29.8 km/h 29.8 km/h 39 % 0 mm
14:33 -0.6 °C -9.2 °C 34256.2 hPa ESE 38.8 km/h 38.8 km/h 39 % 0 mm
14:38 -0.6 °C -9.1 °C 34256.2 hPa East 32.8 km/h 32.8 km/h 40 % 0 mm
14:43 -0.6 °C -8.8 °C 34256.2 hPa ESE 20.9 km/h 20.9 km/h 41 % 0 mm
14:48 -0.6 °C -8.8 °C 34256.2 hPa SSE 23.8 km/h 23.8 km/h 41 % 0 mm
14:53 -0.9 °C -8.8 °C 34256.2 hPa ESE 29.8 km/h 29.8 km/h 42 % 0 mm
14:58 -0.7 °C -8.7 °C 34256.2 hPa SE 27.7 km/h 27.7 km/h 42 % 0 mm
15:03 -0.7 °C -8.5 °C 34256.2 hPa East 25.9 km/h 25.9 km/h 43 % 0 mm
15:08 -0.7 °C -8.7 °C 34256.2 hPa SE 23.8 km/h 23.8 km/h 42 % 0 mm
15:10 -0.6 °C -8.6 °C 34256.2 hPa East 23.8 km/h 23.8 km/h 42 % 0 mm
15:14 -0.7 °C -8.7 °C 34256.2 hPa ESE 27.7 km/h 27.7 km/h 42 % 0 mm
15:20 -0.4 °C -8.7 °C 34256.2 hPa SSW 15 km/h 15 km/h 41 % 0 mm
15:25 -0.2 °C -8.5 °C 34256.2 hPa ESE 17.9 km/h 17.9 km/h 41 % 0 mm
15:30 -0.4 °C -8.8 °C 34256.2 hPa SE 12.9 km/h 36.2 km/h 40 % 0 mm
15:35 -0.2 °C -8.8 °C 34256.2 hPa ESE 20.8 km/h 41.4 km/h 39 % 0 mm
15:40 -0.5 °C -9.2 °C 34256.2 hPa SSE 20.9 km/h 20.9 km/h 39 % 0 mm
15:45 -0.2 °C -8.8 °C 34256.2 hPa SE 15.6 km/h 23.3 km/h 39 % 0 mm
15:50 -0.7 °C -9.1 °C 34256.2 hPa SE 23.3 km/h 36.2 km/h 40 % 0 mm
15:55 -0.6 °C -8.8 °C 34256.2 hPa SE 12.9 km/h 15.6 km/h 41 % 0 mm
16:00 -1 °C -9.4 °C 34256.2 hPa East 26.9 km/h 27.2 km/h 40 % 0 mm
16:05 -0.9 °C -9.3 °C 34256.2 hPa East 29 km/h 29 km/h 40 % 0 mm
16:10 -0.9 °C -9.3 °C 34256.2 hPa NNE 41.7 km/h 41.7 km/h 40 % 0 mm
16:15 -0.8 °C -9.2 °C 34256.2 hPa ESE 26.9 km/h 26.9 km/h 40 % 0 mm
16:20 -1 °C -9.4 °C 34256.2 hPa South 26.9 km/h 26.9 km/h 40 % 0 mm
16:25 -0.9 °C -9.3 °C 34256.2 hPa ESE 18.2 km/h 31.1 km/h 40 % 0 mm
16:30 -0.7 °C -9.1 °C 34256.2 hPa ESE 20.9 km/h 20.9 km/h 40 % 0 mm
16:35 -0.7 °C -9.1 °C 34256.2 hPa ESE 20.9 km/h 20.9 km/h 40 % 0 mm
16:40 -1.1 °C -9.4 °C 34256.2 hPa ENE 23.8 km/h 23.8 km/h 40 % 0 mm
16:45 -0.9 °C -9.3 °C 34256.2 hPa ESE 26.9 km/h 26.9 km/h 40 % 0 mm
16:50 -0.8 °C -9.2 °C 34256.2 hPa East 31.4 km/h 31.4 km/h 40 % 0 mm
16:55 -1.1 °C -9.4 °C 34256.2 hPa ESE 23.8 km/h 23.8 km/h 40 % 0 mm
17:00 -0.9 °C -9.1 °C 34256.2 hPa SE 20.9 km/h 20.9 km/h 41 % 0 mm
17:05 -0.8 °C -9 °C 34256.2 hPa ENE 26.9 km/h 26.9 km/h 41 % 0 mm
17:10 -0.9 °C -9.3 °C 34222.3 hPa ESE 20.9 km/h 20.9 km/h 40 % 0 mm
17:11 -0.9 °C -9.3 °C 34222.3 hPa ESE 25.4 km/h 25.4 km/h 40 % 0 mm
17:16 -1.1 °C -9 °C 34222.3 hPa ESE 26.9 km/h 26.9 km/h 42 % 0 mm
17:21 -1.2 °C -9.1 °C 34293.4 hPa ESE 23.8 km/h 23.8 km/h 42 % 0 mm
17:26 -1.3 °C -9 °C 34293.4 hPa South 20.9 km/h 20.9 km/h 43 % 0 mm
17:31 -1.3 °C -8.6 °C 34293.4 hPa SE 15 km/h 15 km/h 45 % 0 mm
17:36 -1.2 °C -8.5 °C 34256.2 hPa NE 23.8 km/h 23.8 km/h 45 % 0 mm
17:41 -1.4 °C -8.7 °C 34256.2 hPa ESE 20.9 km/h 20.9 km/h 45 % 0 mm
17:46 -1.4 °C -8.7 °C 34256.2 hPa East 20.9 km/h 20.9 km/h 45 % 0 mm
17:51 -1.6 °C -8.8 °C 34256.2 hPa ESE 20.9 km/h 20.9 km/h 45 % 0 mm
17:57 -1.6 °C -8.7 °C 34256.2 hPa East 23.8 km/h 23.8 km/h 46 % 0 mm
18:02 -1.7 °C -8.6 °C 34256.2 hPa ENE 20.9 km/h 20.9 km/h 47 % 0 mm
18:07 -1.7 °C -8.6 °C 34256.2 hPa NNE 23.8 km/h 23.8 km/h 47 % 0 mm
18:12 -1.7 °C -8.6 °C 34256.2 hPa ENE 17.9 km/h 19.2 km/h 47 % 0 mm
18:17 -1.7 °C -8.6 °C 34256.2 hPa East 27.2 km/h 27.2 km/h 47 % 0 mm
18:22 -1.7 °C -8.4 °C 34222.3 hPa SSE 20.9 km/h 20.9 km/h 48 % 0 mm
18:28 -1.8 °C -8.7 °C 34222.3 hPa ESE 22 km/h 22 km/h 47 % 0 mm
18:33 -1.9 °C -8.8 °C 34222.3 hPa SSE 29.8 km/h 29.8 km/h 47 % 0 mm
18:38 -2.1 °C -9.1 °C 34222.3 hPa ESE 38.8 km/h 38.8 km/h 46 % 0 mm
18:43 -2.2 °C -9.1 °C 34222.3 hPa NE 23.3 km/h 23.3 km/h 47 % 0 mm
18:48 -2.2 °C -8.9 °C 34222.3 hPa ESE 20.9 km/h 20.9 km/h 48 % 0 mm
18:53 -2.3 °C -8.9 °C 34198.6 hPa ESE 20.9 km/h 20.9 km/h 48 % 0 mm
18:58 -2.3 °C -8.8 °C 34198.6 hPa ENE 19.2 km/h 19.2 km/h 49 % 0 mm
19:03 -2.4 °C -8.9 °C 34198.6 hPa East 29.8 km/h 29.8 km/h 49 % 0 mm
19:08 -2.4 °C -8.9 °C 34198.6 hPa NNE 22.5 km/h 22.5 km/h 49 % 0 mm
19:13 -2.4 °C -8.9 °C 34198.6 hPa ENE 17.9 km/h 17.9 km/h 49 % 0 mm
19:15 -4.7 °C -7.1 °C 34222.3 hPa NE 12.9 km/h 12.9 km/h 77 % 0 mm
19:18 -2.6 °C -9.1 °C 34198.6 hPa NNE 15 km/h 15 km/h 49 % 0 mm
19:23 -2.6 °C -8.9 °C 34198.6 hPa ESE 23.8 km/h 23.8 km/h 50 % 0 mm
19:25 -4.7 °C -7.1 °C 34198.6 hPa NE 7.7 km/h 12.9 km/h 77 % 0 mm
19:28 -2.6 °C -9.1 °C 34198.6 hPa NNE 20.9 km/h 20.9 km/h 49 % 0 mm
19:33 -2.6 °C -9.1 °C 34198.6 hPa ESE 20.9 km/h 20.9 km/h 49 % 0 mm
19:35 -4.8 °C -7.2 °C 34198.6 hPa NE 7.7 km/h 7.7 km/h 77 % 0 mm
19:38 -2.6 °C -8.9 °C 34198.6 hPa ENE 29 km/h 29 km/h 50 % 0 mm
19:43 -2.7 °C -8.9 °C 34198.6 hPa ESE 25.9 km/h 25.9 km/h 50 % 0 mm
19:45 -4.8 °C -7.2 °C 34198.6 hPa NE 12.9 km/h 12.9 km/h 77 % 0 mm
19:48 -2.7 °C -8.8 °C 34198.6 hPa South 26.9 km/h 26.9 km/h 51 % 0 mm
19:54 -2.7 °C -8.9 °C 34198.6 hPa ESE 20.9 km/h 20.9 km/h 50 % 0 mm
19:55 -4.7 °C -7.1 °C 34198.6 hPa NNE 12.9 km/h 15.6 km/h 77 % 0 mm
19:59 -2.7 °C -9 °C 34198.6 hPa ESE 15 km/h 15 km/h 50 % 0 mm
20:04 -2.7 °C -9 °C 34198.6 hPa ESE 15 km/h 15 km/h 50 % 0 mm
20:05 -4.8 °C -7.3 °C 34198.6 hPa NNE 7.7 km/h 15.6 km/h 76 % 0 mm
20:09 -2.8 °C -8.9 °C 34198.6 hPa East 15.3 km/h 15.3 km/h 51 % 0 mm
20:10 -2.8 °C -9.1 °C 34198.6 hPa ESE 15 km/h 15.6 km/h 50 % 0 mm
20:15 -2.8 °C -8.9 °C 34198.6 hPa East 15 km/h 15 km/h 51 % 0 mm
20:21 -2.9 °C -8.3 °C 34198.6 hPa ENE 11.9 km/h 12.2 km/h 55 % 0 mm
20:25 -4.8 °C -7.3 °C 34198.6 hPa NE 12.9 km/h 12.9 km/h 76 % 0 mm
20:26 -3.1 °C -8.2 °C 34198.6 hPa ENE 12.7 km/h 20.3 km/h 57 % 0 mm
20:31 -3.2 °C -8 °C 34198.6 hPa ENE 16.1 km/h 16.1 km/h 59 % 0 mm
20:35 -4.7 °C -7.2 °C 34198.6 hPa NE 7.7 km/h 12.9 km/h 76 % 0 mm
20:36 -3.3 °C -7.7 °C 34198.6 hPa SSE 20.9 km/h 20.9 km/h 62 % 0 mm
20:41 -3.4 °C -7.6 °C 34198.6 hPa ENE 26.9 km/h 26.9 km/h 63 % 0 mm
20:45 -4.7 °C -7.2 °C 34164.7 hPa NE 7.7 km/h 10.3 km/h 76 % 0 mm
20:46 -3.4 °C -7.6 °C 34198.6 hPa East 20.9 km/h 20.9 km/h 64 % 0 mm
20:51 -3.6 °C -7.4 °C 34198.6 hPa ENE 26.9 km/h 26.9 km/h 65 % 0 mm
20:55 -4.7 °C -7.2 °C 34198.6 hPa NE 5.1 km/h 7.7 km/h 76 % 0 mm
20:57 -3.6 °C -7.6 °C 34198.6 hPa ENE 17.9 km/h 17.9 km/h 65 % 0 mm
21:02 -3.7 °C -7.6 °C 34198.6 hPa East 15 km/h 15 km/h 65 % 0 mm
21:05 -4.7 °C -7.2 °C 34198.6 hPa NE 2.6 km/h 7.7 km/h 76 % 0 mm
21:07 -3.7 °C -7.4 °C 34198.6 hPa NNE 17.9 km/h 17.9 km/h 66 % 0 mm
21:12 -3.7 °C -7.7 °C 34198.6 hPa East 11.9 km/h 11.9 km/h 65 % 0 mm
21:15 -4.7 °C -7.2 °C 34198.6 hPa NE 5.1 km/h 7.7 km/h 76 % 0 mm
21:17 -3.7 °C -7.5 °C 34198.6 hPa ESE 23.8 km/h 23.8 km/h 66 % 0 mm
21:22 -3.8 °C -7.6 °C 34198.6 hPa ESE 20.3 km/h 20.3 km/h 66 % 0 mm
21:25 -4.7 °C -7.2 °C 34198.6 hPa NNE 7.7 km/h 7.7 km/h 76 % 0 mm
21:27 -3.9 °C -7.6 °C 34198.6 hPa ENE 20.9 km/h 20.9 km/h 67 % 0 mm
21:32 -3.9 °C -7.6 °C 34198.6 hPa East 15 km/h 15 km/h 67 % 0 mm
21:35 -4.6 °C -7.2 °C 34198.6 hPa NNE 7.7 km/h 12.9 km/h 75 % 0 mm
21:37 -3.9 °C -7.4 °C 34198.6 hPa ENE 15 km/h 15 km/h 68 % 0 mm
21:42 -4 °C -7.4 °C 34198.6 hPa SE 15 km/h 15 km/h 69 % 0 mm
21:45 -4.6 °C -7.3 °C 34198.6 hPa NE 12.9 km/h 12.9 km/h 74 % 0 mm
21:47 -4 °C -7.4 °C 34198.6 hPa ENE 17.9 km/h 17.9 km/h 69 % 0 mm
21:52 -4.1 °C -7.3 °C 34198.6 hPa ENE 20.3 km/h 20.3 km/h 70 % 0 mm
21:55 -4.6 °C -7.3 °C 34198.6 hPa NE 7.7 km/h 10.3 km/h 74 % 0 mm
21:57 -4.1 °C -7.3 °C 34198.6 hPa East 11.9 km/h 11.9 km/h 70 % 0 mm
22:02 -4.1 °C -7.3 °C 34198.6 hPa ENE 20.9 km/h 20.9 km/h 70 % 0 mm
22:05 -4.6 °C -7.4 °C 34198.6 hPa NNE 7.7 km/h 10.3 km/h 73 % 0 mm
22:08 -4.2 °C -7.4 °C 34198.6 hPa SE 11.9 km/h 11.9 km/h 70 % 0 mm
22:13 -4.2 °C -7.3 °C 34198.6 hPa NE 15 km/h 15 km/h 71 % 0 mm
22:15 -4.7 °C -7.5 °C 34198.6 hPa NNE 7.7 km/h 15.6 km/h 73 % 0 mm
22:18 -4.2 °C -7.3 °C 34198.6 hPa East 11.9 km/h 11.9 km/h 71 % 0 mm
22:23 -4.2 °C -7.3 °C 34198.6 hPa SSE 23.8 km/h 23.8 km/h 71 % 0 mm
22:25 -4.7 °C -7.5 °C 34164.7 hPa NNE 7.7 km/h 12.9 km/h 73 % 0 mm
22:28 -4.3 °C -7.4 °C 34198.6 hPa ESE 17.9 km/h 17.9 km/h 71 % 0 mm
22:33 -4.3 °C -7.4 °C 34198.6 hPa ESE 23.8 km/h 23.8 km/h 71 % 0 mm
22:35 -4.7 °C -7.6 °C 34164.7 hPa NNE 2.6 km/h 10.3 km/h 73 % 0 mm
22:38 -4.3 °C -7.4 °C 34198.6 hPa SE 11.9 km/h 11.9 km/h 71 % 0 mm
22:43 -4.3 °C -7.3 °C 34198.6 hPa East 17.9 km/h 17.9 km/h 72 % 0 mm
22:45 -4.8 °C -7.7 °C 34198.6 hPa NNE 2.6 km/h 7.7 km/h 73 % 0 mm
22:48 -4.3 °C -7.3 °C 34198.6 hPa ESE 15 km/h 15 km/h 72 % 0 mm
22:53 -4.3 °C -7.3 °C 34222.3 hPa East 15 km/h 15 km/h 72 % 0 mm
22:55 -4.9 °C -7.7 °C 34198.6 hPa NE 5.1 km/h 7.7 km/h 73 % 0 mm
22:58 -4.4 °C -7.3 °C 34222.3 hPa NE 18.3 km/h 18.3 km/h 73 % 0 mm
23:03 -4.4 °C -7.3 °C 34222.3 hPa NNE 15 km/h 15 km/h 73 % 0 mm
23:05 -4.9 °C -7.8 °C 34198.6 hPa NE 2.6 km/h 7.7 km/h 73 % 0 mm
23:09 -4.4 °C -7.3 °C 34222.3 hPa ENE 9 km/h 9 km/h 73 % 0 mm
23:14 -4.4 °C -7.4 °C 34222.3 hPa NNE 11.1 km/h 11.1 km/h 72 % 0 mm
23:15 -5 °C -7.8 °C 34198.6 hPa NE 7.7 km/h 10.3 km/h 73 % 0 mm
23:19 -4.5 °C -7.2 °C 34222.3 hPa NE 11.9 km/h 11.9 km/h 74 % 0 mm
23:24 -4.5 °C -7.2 °C 34198.6 hPa ENE 9 km/h 9 km/h 74 % 0 mm
23:25 -5.1 °C -7.9 °C 34164.7 hPa NE 7.7 km/h 7.7 km/h 73 % 0 mm
23:29 -4.6 °C -7.3 °C 34198.6 hPa ENE 17.9 km/h 17.9 km/h 74 % 0 mm
23:34 -4.6 °C -7.2 °C 34198.6 hPa ENE 15 km/h 15 km/h 75 % 0 mm
23:35 -5.1 °C -7.8 °C 34164.7 hPa NE 5.1 km/h 10.3 km/h 74 % 0 mm
23:40 -4.6 °C -7.2 °C 34198.6 hPa NE 15 km/h 15 km/h 75 % 0 mm
23:45 -4.6 °C -7.1 °C 34198.6 hPa NE 15.6 km/h 15.6 km/h 76 % 0 mm
23:50 -4.7 °C -7.2 °C 34198.6 hPa ENE 9.8 km/h 10.3 km/h 76 % 0 mm
23:55 -4.7 °C -7.2 °C 34198.6 hPa NE 15 km/h 15 km/h 76 % 0 mm
Meteo Sesrovires
Elogis d' Weather Underground - 4 mb

Guio original per  Jim McMurry - jmcmurry@mwt.net Adaptat per a la plantilla per  Wim van der Kuil - Leuven-Template.eu

Trobareu la nostra informacio del temps tambe a:

Weather Underground

AWEKAS